Terminal Aerodrome Forecast
Issued by NWS Rapid City, SD

Home | Current Version | Previous Version | Graphics & Text | Print | Product List | Glossary On
Versions: 1 2 3 4 5 6 7 8 9 10 11 12 13 14 15 16 17 18
000
FTUS43 KUNR 041725
TAFRAP
TAF
KRAP 041725Z 0418/0518 17009KT P6SM SCT060
     FM050200 VRB04KT P6SM SCT100
     FM051400 VRB06KT P6SM SCT070 BKN150=

USA.gov is the U.S. government's official web portal to all federal, state and local government web resources and services.